createdAt,value
2022-09-10T00:01:20.912Z,73.75
2022-09-10T00:03:51.171Z,65.68
2022-09-10T00:06:19.128Z,73.60
2022-09-10T00:08:47.344Z,68.68
2022-09-10T00:11:15.441Z,69.78
2022-09-10T00:13:43.523Z,70.10
2022-09-10T00:16:13.666Z,65.93
2022-09-10T00:18:42.115Z,70.97
2022-09-10T00:21:12.525Z,73.97
2022-09-10T00:23:40.893Z,63.85
2022-09-10T00:26:21.867Z,82.72
2022-09-10T00:28:50.692Z,79.18
2022-09-10T00:31:19.210Z,79.47
2022-09-10T00:33:46.445Z,73.28
2022-09-10T00:36:23.288Z,77.30
2022-09-10T00:38:52.269Z,84.60
2022-09-10T00:41:22.443Z,84.57
2022-09-10T00:44:02.374Z,138.40
2022-09-10T00:46:32.889Z,83.15
2022-09-10T00:49:03.582Z,175.32
2022-09-10T00:51:34.481Z,93.05
2022-09-10T00:54:03.982Z,83.80
2022-09-10T00:56:32.584Z,87.60
2022-09-10T00:59:01.552Z,92.00
2022-09-10T01:01:29.066Z,91.80
2022-09-10T01:03:56.630Z,89.97
2022-09-10T01:06:24.165Z,94.65
2022-09-10T01:08:51.427Z,97.68
2022-09-10T01:11:46.625Z,108.93
2022-09-10T01:14:36.051Z,99.47
2022-09-10T01:17:25.956Z,118.03
2022-09-10T01:20:40.533Z,186.27
2022-09-10T01:23:32.701Z,172.07
2022-09-10T01:26:06.141Z,166.70
2022-09-10T01:28:56.594Z,142.82
2022-09-10T01:31:31.552Z,119.63
2022-09-10T01:34:16.936Z,111.07
2022-09-10T01:36:50.465Z,106.80
2022-09-10T01:39:20.991Z,98.57
2022-09-10T01:41:50.735Z,95.85
2022-09-10T01:44:41.221Z,103.57
2022-09-10T01:47:17.834Z,97.78
2022-09-10T01:50:03.779Z,80.15
2022-09-10T01:52:56.339Z,106.35
2022-09-10T01:55:45.183Z,88.97
2022-09-10T01:58:22.057Z,107.57
2022-09-10T02:01:15.689Z,94.97
2022-09-10T02:03:46.938Z,97.88
2022-09-10T02:06:19.485Z,133.93
2022-09-10T02:08:52.891Z,107.82
2022-09-10T02:11:21.485Z,114.00
2022-09-10T02:13:52.042Z,111.80
2022-09-10T02:16:37.841Z,106.20
2022-09-10T02:19:06.597Z,107.05
2022-09-10T02:21:34.580Z,104.95
2022-09-10T02:24:10.137Z,97.75
2022-09-10T02:26:40.758Z,110.22
2022-09-10T02:29:10.222Z,111.18
2022-09-10T02:31:40.072Z,107.03
2022-09-10T02:34:07.381Z,124.18
2022-09-10T02:36:35.892Z,117.15
2022-09-10T02:39:05.061Z,98.50
2022-09-10T02:41:34.267Z,101.85
2022-09-10T02:44:03.539Z,86.43
2022-09-10T02:46:31.139Z,125.35
2022-09-10T02:48:59.002Z,106.93
2022-09-10T02:51:26.378Z,162.68
2022-09-10T02:53:55.788Z,111.32
2022-09-10T02:56:23.857Z,108.97
2022-09-10T02:58:51.345Z,106.35
2022-09-10T03:01:21.124Z,104.70
2022-09-10T03:04:00.595Z,92.90
2022-09-10T03:06:29.590Z,113.30
2022-09-10T03:08:58.397Z,93.65
2022-09-10T03:11:27.625Z,136.57
2022-09-10T03:13:55.921Z,91.95
2022-09-10T03:16:24.446Z,105.78
2022-09-10T03:18:52.466Z,96.65
2022-09-10T03:21:23.818Z,90.32
2022-09-10T03:23:52.933Z,97.97
2022-09-10T03:26:25.623Z,106.25
2022-09-10T03:28:53.911Z,99.95
2022-09-10T03:31:23.528Z,196.38
2022-09-10T03:33:51.821Z,120.28
2022-09-10T03:36:21.047Z,90.88
2022-09-10T03:38:50.184Z,99.07
2022-09-10T03:41:17.665Z,161.13
2022-09-10T03:43:45.644Z,106.10
2022-09-10T03:46:13.160Z,106.40
2022-09-10T03:48:43.839Z,93.70
2022-09-10T03:51:11.508Z,99.75
2022-09-10T03:53:40.969Z,109.38
2022-09-10T03:56:13.039Z,167.27
2022-09-10T03:58:41.168Z,101.57
2022-09-10T04:01:10.172Z,128.75
2022-09-10T04:03:42.159Z,123.95
2022-09-10T04:06:10.991Z,174.05
2022-09-10T04:08:39.490Z,117.47
2022-09-10T04:11:09.466Z,111.88
2022-09-10T04:13:36.704Z,131.30
2022-09-10T04:16:04.248Z,179.18
2022-09-10T04:18:34.575Z,121.00
2022-09-10T04:21:03.562Z,166.80
2022-09-10T04:23:30.963Z,135.65
2022-09-10T04:25:58.278Z,112.95
2022-09-10T04:28:25.882Z,215.15
2022-09-10T04:30:54.577Z,140.98
2022-09-10T04:33:25.134Z,191.95
2022-09-10T04:35:52.756Z,118.65
2022-09-10T04:38:21.000Z,216.68
2022-09-10T04:40:49.283Z,148.82
2022-09-10T04:43:17.420Z,105.38
2022-09-10T04:45:45.237Z,150.10
2022-09-10T04:48:12.918Z,357.42
2022-09-10T04:50:54.075Z,126.05
2022-09-10T04:53:28.704Z,134.60
2022-09-10T04:55:57.674Z,211.75
2022-09-10T04:58:24.982Z,230.95
2022-09-10T05:00:52.425Z,248.02
2022-09-10T05:03:20.837Z,179.00
2022-09-10T05:05:48.531Z,313.08
2022-09-10T05:08:15.934Z,299.10
2022-09-10T05:10:50.470Z,141.80
2022-09-10T05:13:18.365Z,108.47
2022-09-10T05:15:46.196Z,488.45
2022-09-10T05:18:16.788Z,113.80
2022-09-10T05:20:45.094Z,220.77
2022-09-10T05:23:12.720Z,85.53
2022-09-10T05:25:43.845Z,139.02
2022-09-10T05:28:11.611Z,108.32
2022-09-10T05:30:38.873Z,190.30
2022-09-10T05:33:06.439Z,261.27
2022-09-10T05:35:34.812Z,204.45
2022-09-10T05:38:02.094Z,276.65
2022-09-10T05:40:32.187Z,146.50
2022-09-10T05:43:00.333Z,191.52
2022-09-10T05:45:27.628Z,185.23
2022-09-10T05:47:57.332Z,114.95
2022-09-10T05:50:24.809Z,90.43
2022-09-10T05:52:53.265Z,208.52
2022-09-10T05:55:20.931Z,165.20
2022-09-10T05:57:49.389Z,74.38
2022-09-10T06:00:19.575Z,94.78
2022-09-10T06:02:59.676Z,93.68
2022-09-10T06:05:34.925Z,82.78
2022-09-10T06:08:08.020Z,89.90
2022-09-10T06:10:39.533Z,93.35
2022-09-10T06:13:07.189Z,135.50
2022-09-10T06:15:36.197Z,96.05
2022-09-10T06:18:04.601Z,99.80
2022-09-10T06:20:32.949Z,84.15
2022-09-10T06:23:00.919Z,173.77
2022-09-10T06:25:28.951Z,93.97
2022-09-10T06:27:57.660Z,77.00
2022-09-10T06:30:26.193Z,101.93
2022-09-10T06:32:53.455Z,78.40
2022-09-10T06:35:21.683Z,105.32
2022-09-10T06:37:50.367Z,73.55
2022-09-10T06:40:18.588Z,63.72
2022-09-10T06:42:45.958Z,79.82
2022-09-10T06:45:13.223Z,65.63
2022-09-10T06:51:02.016Z,75.90
2022-09-10T06:53:35.147Z,74.00
2022-09-10T06:56:05.968Z,97.28
2022-09-10T06:58:35.422Z,85.47
2022-09-10T07:01:23.969Z,76.50
2022-09-10T07:03:56.946Z,85.20
2022-09-10T07:06:26.688Z,68.60
2022-09-10T07:08:59.625Z,87.03
2022-09-10T07:11:32.579Z,77.47
2022-09-10T07:14:02.033Z,92.88
2022-09-10T07:16:32.130Z,83.47
2022-09-10T07:19:00.431Z,83.63
2022-09-10T07:21:40.968Z,81.70
2022-09-10T07:24:15.093Z,60.97
2022-09-10T07:26:51.588Z,69.32
2022-09-10T07:29:18.993Z,85.00
2022-09-10T07:31:48.243Z,84.55
2022-09-10T07:34:20.747Z,70.70
2022-09-10T07:36:47.931Z,79.32
2022-09-10T07:39:15.850Z,87.40
2022-09-10T07:41:43.807Z,79.75
2022-09-10T07:44:14.577Z,65.82
2022-09-10T07:46:45.122Z,71.55
2022-09-10T07:49:13.870Z,66.15
2022-09-10T07:51:44.772Z,64.07
2022-09-10T07:54:17.041Z,63.05
2022-09-10T07:56:49.268Z,64.20
2022-09-10T07:59:16.826Z,60.85
2022-09-10T08:01:50.847Z,56.53
2022-09-10T08:04:20.242Z,59.55
2022-09-10T08:06:47.378Z,158.45
2022-09-10T08:09:15.013Z,71.30
2022-09-10T08:11:50.367Z,386.42
2022-09-10T08:14:20.219Z,100.88
2022-09-10T08:16:51.376Z,76.93
2022-09-10T08:19:19.738Z,222.10
2022-09-10T08:21:47.749Z,103.50
2022-09-10T08:24:20.790Z,346.55
2022-09-10T08:26:50.397Z,192.63
2022-09-10T08:29:19.352Z,74.57
2022-09-10T08:31:47.505Z,90.53
2022-09-10T08:34:29.027Z,66.20
2022-09-10T08:37:04.445Z,70.90
2022-09-10T08:39:34.386Z,55.83
2022-09-10T08:42:09.337Z,70.00
2022-09-10T08:45:15.353Z,47.33
2022-09-10T08:48:24.150Z,57.88
2022-09-10T08:50:59.238Z,56.30
2022-09-10T08:53:45.831Z,67.53
2022-09-10T08:56:21.514Z,64.75
2022-09-10T08:59:00.040Z,57.55
2022-09-10T09:01:40.559Z,57.58
2022-09-10T09:04:19.132Z,54.80
2022-09-10T09:06:56.694Z,53.92
2022-09-10T09:09:24.596Z,50.75
2022-09-10T09:12:07.458Z,47.67
2022-09-10T09:14:49.173Z,48.00
2022-09-10T09:17:35.228Z,54.55
2022-09-10T09:20:14.166Z,54.53
2022-09-10T09:22:50.202Z,45.05
2022-09-10T09:25:23.944Z,46.08
2022-09-10T09:27:55.600Z,41.90
2022-09-10T09:30:37.728Z,43.63
2022-09-10T09:33:19.957Z,38.60
2022-09-10T09:38:26.792Z,35.50
2022-09-10T09:41:00.536Z,32.63
2022-09-10T09:43:34.888Z,35.55
2022-09-10T09:46:02.965Z,26.80
2022-09-10T09:48:40.088Z,40.20
2022-09-10T09:51:13.558Z,44.05
2022-09-10T09:53:45.103Z,43.08
2022-09-10T09:56:51.736Z,48.97
2022-09-10T09:59:30.729Z,44.67
2022-09-10T10:02:10.892Z,55.75
2022-09-10T10:04:42.415Z,46.85
2022-09-10T10:07:11.980Z,46.40
2022-09-10T10:09:44.144Z,44.05
2022-09-10T10:12:22.243Z,40.40
2022-09-10T10:14:50.000Z,38.85
2022-09-10T10:17:46.321Z,41.97
2022-09-10T10:20:16.975Z,39.00
2022-09-10T10:22:46.482Z,38.28
2022-09-10T10:25:33.192Z,38.25
2022-09-10T10:28:00.983Z,33.42
2022-09-10T10:30:31.674Z,32.03
2022-09-10T10:33:03.499Z,35.53
2022-09-10T10:35:44.275Z,29.80
2022-09-10T10:38:31.377Z,30.30
2022-09-10T10:41:09.657Z,29.08
2022-09-10T10:43:49.178Z,31.80
2022-09-10T10:46:34.494Z,25.52
2022-09-10T10:49:33.308Z,27.52
2022-09-10T10:52:12.623Z,24.15
2022-09-10T10:54:51.858Z,28.58
2022-09-10T10:57:33.593Z,28.30
2022-09-10T11:00:08.202Z,29.80
2022-09-10T11:02:36.207Z,31.13
2022-09-10T11:05:18.520Z,30.00
2022-09-10T11:07:47.355Z,27.50
2022-09-10T11:10:19.027Z,27.20
2022-09-10T11:15:48.372Z,25.23
2022-09-10T11:18:27.322Z,24.50
2022-09-10T11:21:34.835Z,26.23
2022-09-10T11:24:06.773Z,26.35
2022-09-10T11:26:45.607Z,30.05
2022-09-10T11:30:04.395Z,33.72
2022-09-10T11:32:40.548Z,33.63
2022-09-10T11:35:10.773Z,40.55
2022-09-10T11:38:08.979Z,36.67
2022-09-10T11:40:46.533Z,37.90
2022-09-10T11:43:22.607Z,43.28
2022-09-10T11:46:00.210Z,39.28
2022-09-10T11:48:32.021Z,39.13
2022-09-10T11:51:10.836Z,39.92
2022-09-10T11:53:38.169Z,45.30
2022-09-10T11:56:26.834Z,43.85
2022-09-10T11:59:09.184Z,37.95
2022-09-10T12:01:56.203Z,37.83
2022-09-10T12:04:26.397Z,36.83
2022-09-10T12:07:02.825Z,35.15
2022-09-10T12:10:14.390Z,29.15
2022-09-10T12:12:50.270Z,34.83
2022-09-10T12:15:23.501Z,32.38
2022-09-10T12:17:58.920Z,28.58
2022-09-10T12:20:32.219Z,27.52
2022-09-10T12:23:00.416Z,30.08
2022-09-10T12:25:34.551Z,30.67
2022-09-10T12:28:07.954Z,29.83
2022-09-10T12:30:38.413Z,27.65
2022-09-10T12:33:11.897Z,27.45
2022-09-10T12:35:47.933Z,26.75
2022-09-10T12:38:46.168Z,27.55
2022-09-10T12:41:36.177Z,29.63
2022-09-10T12:44:36.139Z,28.83
2022-09-10T12:47:15.216Z,32.28
2022-09-10T12:49:58.297Z,33.03
2022-09-10T12:52:52.961Z,35.60
2022-09-10T12:55:38.977Z,34.80
2022-09-10T12:58:17.210Z,32.22
2022-09-10T13:00:56.433Z,33.30
2022-09-10T13:03:29.146Z,36.40
2022-09-10T13:05:59.660Z,30.92
2022-09-10T13:08:33.765Z,30.92
2022-09-10T13:11:03.007Z,30.33
2022-09-10T13:13:33.650Z,29.23
2022-09-10T13:16:02.717Z,30.80
2022-09-10T13:18:35.957Z,28.63
2022-09-10T13:21:24.838Z,29.27
2022-09-10T13:23:56.469Z,33.35
2022-09-10T13:26:34.114Z,27.60
2022-09-10T13:29:26.043Z,28.13
2022-09-10T13:32:08.310Z,30.75
2022-09-10T13:35:06.309Z,29.52
2022-09-10T13:37:41.521Z,29.60
2022-09-10T13:40:27.819Z,27.13
2022-09-10T13:42:54.944Z,29.50
2022-09-10T13:45:41.808Z,32.03
2022-09-10T13:48:17.555Z,31.48
2022-09-10T13:51:15.384Z,34.22
2022-09-10T13:53:45.566Z,30.30
2022-09-10T13:56:26.775Z,32.40
2022-09-10T13:59:00.980Z,31.27
2022-09-10T14:01:59.536Z,32.45
2022-09-10T14:04:31.992Z,28.45
2022-09-10T14:07:23.603Z,30.05
2022-09-10T14:09:56.840Z,29.60
2022-09-10T14:12:28.870Z,31.25
2022-09-10T14:15:00.032Z,27.20
2022-09-10T14:17:35.196Z,28.35
2022-09-10T14:20:12.919Z,33.97
2022-09-10T14:22:40.965Z,27.27
2022-09-10T14:25:29.983Z,25.58
2022-09-10T14:28:27.593Z,27.95
2022-09-10T14:31:27.093Z,26.27
2022-09-10T14:33:55.970Z,28.67
2022-09-10T14:36:31.121Z,22.92
2022-09-10T14:39:03.621Z,28.70
2022-09-10T14:41:33.810Z,27.77
2022-09-10T14:44:29.802Z,27.98
2022-09-10T14:47:14.880Z,28.80
2022-09-10T14:49:44.620Z,28.38
2022-09-10T14:52:11.898Z,29.05
2022-09-10T14:54:39.344Z,24.95
2022-09-10T14:57:13.970Z,26.35
2022-09-10T14:59:43.801Z,26.88
2022-09-10T15:02:23.247Z,26.55
2022-09-10T15:04:50.917Z,26.83
2022-09-10T15:07:18.368Z,29.50
2022-09-10T15:09:46.881Z,30.02
2022-09-10T15:12:31.796Z,27.70
2022-09-10T15:14:59.380Z,28.02
2022-09-10T15:17:27.136Z,28.45
2022-09-10T15:19:55.358Z,28.42
2022-09-10T15:22:27.970Z,29.38
2022-09-10T15:25:09.633Z,28.23
2022-09-10T15:27:37.721Z,29.63
2022-09-10T15:30:05.847Z,27.50
2022-09-10T15:32:33.108Z,29.60
2022-09-10T15:35:01.248Z,28.17
2022-09-10T15:37:28.427Z,30.95
2022-09-10T15:39:58.051Z,28.95
2022-09-10T15:42:25.581Z,24.73
2022-09-10T15:44:52.787Z,27.27
2022-09-10T15:47:19.922Z,30.25
2022-09-10T15:49:47.281Z,29.45
2022-09-10T15:52:14.398Z,29.23
2022-09-10T15:54:43.196Z,32.55
2022-09-10T15:57:10.652Z,29.13
2022-09-10T15:59:37.868Z,33.78
2022-09-10T16:02:06.302Z,27.52
2022-09-10T16:04:36.179Z,27.55
2022-09-10T16:07:04.104Z,29.27
2022-09-10T16:09:31.290Z,28.88
2022-09-10T16:11:58.899Z,30.20
2022-09-10T16:14:26.029Z,32.42
2022-09-10T16:16:53.890Z,31.08
2022-09-10T16:19:21.277Z,34.75
2022-09-10T16:21:48.513Z,34.28
2022-09-10T16:24:15.707Z,35.92
2022-09-10T16:26:43.908Z,34.10
2022-09-10T16:29:16.683Z,33.03
2022-09-10T16:31:47.275Z,29.27
2022-09-10T16:34:18.477Z,32.38
2022-09-10T16:36:48.980Z,31.55
2022-09-10T16:39:16.488Z,28.80
2022-09-10T16:41:48.595Z,29.75
2022-09-10T16:44:17.667Z,33.33
2022-09-10T16:46:46.326Z,32.28
2022-09-10T16:49:15.193Z,27.73
2022-09-10T16:51:43.833Z,31.25
2022-09-10T16:54:11.922Z,34.35
2022-09-10T16:56:42.181Z,34.70
2022-09-10T16:59:16.075Z,31.70
2022-09-10T17:01:45.153Z,29.25
2022-09-10T17:04:21.359Z,29.05
2022-09-10T17:06:50.877Z,31.95
2022-09-10T17:09:18.327Z,32.03
2022-09-10T17:11:45.518Z,30.60
2022-09-10T17:14:12.765Z,32.92
2022-09-10T17:16:42.212Z,30.83
2022-09-10T17:19:18.693Z,29.60
2022-09-10T17:21:51.342Z,27.80
2022-09-10T17:24:22.843Z,35.20
2022-09-10T17:29:20.682Z,34.45
2022-09-10T17:31:48.179Z,35.58
2022-09-10T17:34:16.849Z,37.92
2022-09-10T17:36:46.207Z,44.13
2022-09-10T17:39:14.683Z,37.83
2022-09-10T17:41:43.107Z,45.45
2022-09-10T17:44:11.508Z,47.65
2022-09-10T17:46:38.759Z,46.85
2022-09-10T17:49:06.573Z,48.28
2022-09-10T17:51:34.827Z,44.08
2022-09-10T17:54:05.085Z,45.85
2022-09-10T17:56:32.440Z,47.30
2022-09-10T17:59:01.811Z,48.58
2022-09-10T18:01:31.857Z,53.83
2022-09-10T18:03:59.366Z,44.35
2022-09-10T18:06:29.122Z,52.53
2022-09-10T18:09:00.793Z,56.35
2022-09-10T18:13:58.139Z,53.55
2022-09-10T18:16:28.413Z,62.63
2022-09-10T18:19:16.179Z,57.55
2022-09-10T18:21:46.408Z,61.60
2022-09-10T18:24:15.109Z,64.03
2022-09-10T18:26:45.083Z,60.83
2022-09-10T18:29:32.622Z,69.57
2022-09-10T18:32:03.292Z,64.65
2022-09-10T18:34:31.135Z,65.90
2022-09-10T18:37:00.650Z,64.05
2022-09-10T18:39:30.959Z,52.53
2022-09-10T18:42:01.011Z,47.75
2022-09-10T18:44:33.209Z,51.75
2022-09-10T18:47:01.019Z,56.15
2022-09-10T18:49:28.509Z,51.10
2022-09-10T18:51:56.571Z,47.95
2022-09-10T18:54:25.051Z,47.13
2022-09-10T18:56:52.860Z,43.33
2022-09-10T18:59:23.170Z,42.10
2022-09-10T19:01:53.269Z,43.50
2022-09-10T19:04:23.903Z,43.08
2022-09-10T19:06:51.699Z,44.87
2022-09-10T19:09:24.981Z,49.10
2022-09-10T19:11:54.073Z,46.80
2022-09-10T19:14:27.506Z,41.72
2022-09-10T19:16:56.588Z,49.72
2022-09-10T19:19:26.478Z,53.88
2022-09-10T19:21:56.289Z,54.10
2022-09-10T19:24:44.088Z,56.13
2022-09-10T19:27:13.978Z,55.17
2022-09-10T19:29:42.328Z,60.10
2022-09-10T19:32:11.349Z,58.85
2022-09-10T19:34:39.111Z,56.90
2022-09-10T19:37:07.307Z,65.18
2022-09-10T19:39:34.554Z,62.25
2022-09-10T19:42:01.840Z,60.90
2022-09-10T19:44:29.211Z,61.35
2022-09-10T19:46:56.380Z,69.38
2022-09-10T19:49:23.615Z,61.55
2022-09-10T19:51:51.006Z,66.40
2022-09-10T19:54:18.387Z,71.20
2022-09-10T19:56:46.393Z,78.68
2022-09-10T19:59:14.627Z,89.35
2022-09-10T20:01:43.793Z,84.13
2022-09-10T20:04:12.150Z,80.45
2022-09-10T20:06:39.746Z,76.30
2022-09-10T20:09:08.720Z,70.25
2022-09-10T20:11:36.284Z,93.20
2022-09-10T20:14:08.070Z,83.80
2022-09-10T20:16:37.690Z,97.75
2022-09-10T20:19:06.538Z,79.50
2022-09-10T20:21:34.985Z,90.28
2022-09-10T20:24:02.122Z,79.55
2022-09-10T20:26:35.045Z,84.10
2022-09-10T20:29:05.330Z,77.20
2022-09-10T20:31:35.587Z,87.43
2022-09-10T20:34:05.354Z,82.97
2022-09-10T20:36:35.038Z,90.60
2022-09-10T20:39:03.012Z,84.70
2022-09-10T20:41:30.636Z,83.40
2022-09-10T20:43:59.858Z,77.65
2022-09-10T20:46:29.547Z,81.30
2022-09-10T20:49:03.204Z,65.30
2022-09-10T20:51:36.008Z,79.47
2022-09-10T20:54:04.534Z,72.82
2022-09-10T20:56:32.671Z,79.57
2022-09-10T20:59:01.556Z,70.28
2022-09-10T21:01:31.227Z,81.68
2022-09-10T21:04:00.574Z,88.25
2022-09-10T21:06:30.175Z,83.03
2022-09-10T21:08:58.178Z,66.65
2022-09-10T21:11:27.841Z,65.78
2022-09-10T21:13:57.387Z,75.97
2022-09-10T21:16:29.862Z,78.20
2022-09-10T21:19:09.604Z,80.25
2022-09-10T21:21:39.437Z,77.88
2022-09-10T21:24:10.918Z,71.47
2022-09-10T21:26:39.994Z,78.25
2022-09-10T21:29:11.781Z,70.65
2022-09-10T21:31:39.234Z,75.72
2022-09-10T21:34:06.791Z,78.35
2022-09-10T21:36:36.066Z,78.65
2022-09-10T21:39:06.786Z,72.65
2022-09-10T21:41:39.970Z,59.95
2022-09-10T21:44:12.273Z,79.10
2022-09-10T21:46:40.569Z,69.90
2022-09-10T21:49:08.208Z,64.43
2022-09-10T21:51:35.647Z,70.22
2022-09-10T21:54:04.460Z,63.33
2022-09-10T21:56:32.253Z,58.67
2022-09-10T21:59:01.189Z,63.83
2022-09-10T22:01:30.557Z,59.38
2022-09-10T22:04:00.793Z,68.28
2022-09-10T22:06:33.444Z,61.25
2022-09-10T22:09:12.525Z,48.72
2022-09-10T22:11:46.887Z,55.08
2022-09-10T22:14:19.213Z,60.42
2022-09-10T22:16:46.516Z,50.17
2022-09-10T22:19:19.192Z,56.42
2022-09-10T22:21:47.221Z,56.38
2022-09-10T22:24:17.356Z,52.58
2022-09-10T22:26:45.444Z,52.55
2022-09-10T22:29:16.185Z,56.20
2022-09-10T22:31:43.352Z,54.33
2022-09-10T22:34:13.636Z,56.17
2022-09-10T22:36:42.559Z,55.80
2022-09-10T22:39:15.499Z,56.28
2022-09-10T22:41:43.549Z,54.03
2022-09-10T22:44:11.037Z,54.72
2022-09-10T22:46:38.896Z,59.22
2022-09-10T22:49:08.100Z,57.95
2022-09-10T22:51:38.247Z,59.92
2022-09-10T22:54:06.409Z,61.70
2022-09-10T22:56:37.485Z,58.90
2022-09-10T22:59:05.879Z,55.88
2022-09-10T23:01:38.008Z,48.03
2022-09-10T23:04:07.215Z,53.38
2022-09-10T23:06:36.776Z,54.92
2022-09-10T23:09:07.038Z,49.25
2022-09-10T23:11:36.319Z,45.72
2022-09-10T23:14:09.261Z,47.63
2022-09-10T23:16:38.946Z,45.55
2022-09-10T23:19:17.585Z,41.22
2022-09-10T23:21:47.521Z,43.75
2022-09-10T23:24:17.266Z,43.17
2022-09-10T23:26:45.081Z,39.45
2022-09-10T23:29:13.171Z,38.17
2022-09-10T23:31:41.048Z,42.38
2022-09-10T23:34:11.783Z,44.45
2022-09-10T23:36:41.563Z,40.00
2022-09-10T23:39:13.157Z,43.38
2022-09-10T23:44:09.686Z,40.25
2022-09-10T23:46:37.111Z,44.88
2022-09-10T23:49:05.403Z,41.10
2022-09-10T23:51:32.561Z,40.58
2022-09-10T23:53:59.879Z,40.72
2022-09-10T23:56:28.546Z,42.25
2022-09-10T23:58:59.319Z,48.65
